Snow Goose — WCW3138 — position and weather

sailwx.info

Track history (hours):
 
Tides and Currents Weather Stations Pressure Air Temp Water Temp Dewpoint Dewpoint Depression Visibility Wind Speed Wind Dir Waves Ship Positions

Snow Goose

Owner: UNITED STATES YACHT BUILDING CRP, EDISON, NJ. More information available from US FCC via Universal Licensing System and Coast Guard Vessel Documentation Center.

Last reported at 2017-Sep-13 11:00 UTC. Time now 2017-Sep-22 20:37 UTC.
Position N 40°30' W 074°16'.
Warning: this ship's position is 9 days out of date.

Length 35 m.

Type: Sailing vessel. MMSI: 367091540.

Date/timePositionNaut miles runAvg speedWind from/ knotsBaromVisibWave heightAir tempDewpointWater temp
2017-Sep-13 11:00N 40°30' W 074°16'0 0.0
2017-Sep-13 10:29N 40°30' W 074°16'0 0.0
2017-Sep-13 09:51N 40°30' W 074°16'0 0.0
2017-Sep-13 09:18N 40°30' W 074°16'0 0.0
2017-Sep-13 07:36N 40°30' W 074°16'0 0.0
2017-Sep-13 07:24N 40°30' W 074°16'0 0.0
2017-Sep-13 07:00N 40°30' W 074°16'  
2017-Sep-09 22:04N 40°31' W 074°03'1 9.8
2017-Sep-09 22:00N 40°32' W 074°02'510.3
2017-Sep-09 21:30N 40°37' W 074°03'4 8.7
2017-Sep-09 21:00N 40°41' W 074°02'0 0.0
2017-Sep-09 20:30N 40°41' W 074°02'0 0.0
2017-Sep-09 20:00N 40°41' W 074°02'0 0.0
2017-Sep-09 19:30N 40°41' W 074°02'0 0.0
2017-Sep-09 19:00N 40°41' W 074°02'0 0.0
2017-Sep-09 18:30N 40°41' W 074°02'0 0.0
2017-Sep-09 18:00N 40°41' W 074°02'0 0.0
2017-Sep-09 17:30N 40°41' W 074°02'0 0.0
2017-Sep-09 17:00N 40°41' W 074°02'0 0.0
2017-Sep-09 16:30N 40°41' W 074°02'0 0.1
2017-Sep-09 16:00N 40°41' W 074°02'0 0.0
2017-Sep-09 15:30N 40°41' W 074°02'0 0.0
2017-Sep-09 15:00N 40°41' W 074°02'0 0.0
2017-Sep-09 14:30N 40°41' W 074°02'0 0.0
2017-Sep-09 14:00N 40°41' W 074°02'0 0.0
2017-Sep-09 13:30N 40°41' W 074°02'0 0.0
2017-Sep-09 13:00N 40°41' W 074°02'0 0.0
2017-Sep-09 12:30N 40°41' W 074°02'0 0.1
2017-Sep-09 12:00N 40°41' W 074°02'0 0.0
2017-Sep-09 11:30N 40°41' W 074°02'0 0.0
2017-Sep-09 11:00N 40°41' W 074°02'0 0.0
2017-Sep-09 10:30N 40°41' W 074°02'0 0.0
2017-Sep-09 10:00N 40°41' W 074°02'0 0.0
2017-Sep-09 09:30N 40°41' W 074°02'0 0.0
2017-Sep-09 09:00N 40°41' W 074°02'0 0.0
2017-Sep-09 08:30N 40°41' W 074°02'0 0.0
2017-Sep-09 08:00N 40°41' W 074°02'0 0.0
2017-Sep-09 07:30N 40°41' W 074°02'0 0.0
2017-Sep-09 07:00N 40°41' W 074°02'0 0.0
2017-Sep-09 06:30N 40°41' W 074°02'0 0.0
2017-Sep-09 06:00N 40°41' W 074°02'0 0.0
2017-Sep-09 05:30N 40°41' W 074°02'0 0.0
2017-Sep-09 05:00N 40°41' W 074°02'0 0.0
2017-Sep-09 04:30N 40°41' W 074°02'0 0.1
2017-Sep-09 04:00N 40°41' W 074°02'0 0.0
2017-Sep-09 03:30N 40°41' W 074°02'0 0.0
2017-Sep-09 03:00N 40°41' W 074°02'0 0.0
2017-Sep-09 02:28N 40°41' W 074°02'0 0.0
2017-Sep-09 02:00N 40°41' W 074°02'0 0.0
2017-Sep-09 01:31N 40°41' W 074°02'0 0.0
2017-Sep-09 01:00N 40°41' W 074°02'0 0.0
2017-Sep-09 00:30N 40°41' W 074°02'0 0.0
2017-Sep-09 00:00N 40°41' W 074°02'0 0.0
2017-Sep-08 23:30N 40°41' W 074°02'0 0.0
2017-Sep-08 23:01N 40°41' W 074°02'0 0.0
2017-Sep-08 22:30N 40°41' W 074°02'0 0.0
2017-Sep-08 22:00N 40°41' W 074°02'0 0.0
2017-Sep-08 21:30N 40°41' W 074°02'0 0.0
2017-Sep-08 21:01N 40°41' W 074°02'0 0.0
2017-Sep-08 20:28N 40°41' W 074°02'0 0.0
2017-Sep-08 20:01N 40°41' W 074°02'0 0.0
2017-Sep-08 19:28N 40°41' W 074°02'0 0.0
2017-Sep-08 18:58N 40°41' W 074°02'0 0.0
2017-Sep-08 18:31N 40°41' W 074°02'0 0.0
2017-Sep-08 17:58N 40°41' W 074°02'0 0.0
2017-Sep-08 17:28N 40°41' W 074°02'0 0.0
2017-Sep-08 16:58N 40°41' W 074°02'0 0.0
2017-Sep-08 16:28N 40°41' W 074°02'0 0.1
2017-Sep-08 15:58N 40°41' W 074°02'2 3.4
2017-Sep-08 15:30N 40°40' W 074°03'5 9.1
2017-Sep-08 14:58N 40°35' W 074°02'  
2017-Sep-04 04:56N 40°29' W 074°02'89 5.7
2017-Sep-03 13:19N 41°06' W 072°16'  
Track history (hours):
 
Tides and Currents Weather Stations Pressure Air Temp Water Temp Dewpoint Dewpoint Depression Visibility Wind Speed Wind Dir Waves Ship Positions

Snow Goose

Owner: UNITED STATES YACHT BUILDING CRP, EDISON, NJ. More information available from US FCC via Universal Licensing System and Coast Guard Vessel Documentation Center.

Last reported at 2017-Sep-13 11:00 UTC. Time now 2017-Sep-22 20:37 UTC.
Position N 40°30' W 074°16'.
Warning: this ship's position is 9 days out of date.

Length 35 m.

Type: Sailing vessel. MMSI: 367091540.

Date/timePositionNaut miles runAvg speedWind from/ knotsBaromVisibWave heightAir tempDewpointWater temp
2017-Sep-13 11:00N 40°30' W 074°16'0 0.0
2017-Sep-13 10:29N 40°30' W 074°16'0 0.0
2017-Sep-13 09:51N 40°30' W 074°16'0 0.0
2017-Sep-13 09:18N 40°30' W 074°16'0 0.0
2017-Sep-13 07:36N 40°30' W 074°16'0 0.0
2017-Sep-13 07:24N 40°30' W 074°16'0 0.0
2017-Sep-13 07:00N 40°30' W 074°16'  
2017-Sep-09 22:04N 40°31' W 074°03'1 9.8
2017-Sep-09 22:00N 40°32' W 074°02'510.3
2017-Sep-09 21:30N 40°37' W 074°03'4 8.7
2017-Sep-09 21:00N 40°41' W 074°02'0 0.0
2017-Sep-09 20:30N 40°41' W 074°02'0 0.0
2017-Sep-09 20:00N 40°41' W 074°02'0 0.0
2017-Sep-09 19:30N 40°41' W 074°02'0 0.0
2017-Sep-09 19:00N 40°41' W 074°02'0 0.0
2017-Sep-09 18:30N 40°41' W 074°02'0 0.0
2017-Sep-09 18:00N 40°41' W 074°02'0 0.0
2017-Sep-09 17:30N 40°41' W 074°02'0 0.0
2017-Sep-09 17:00N 40°41' W 074°02'0 0.0
2017-Sep-09 16:30N 40°41' W 074°02'0 0.1
2017-Sep-09 16:00N 40°41' W 074°02'0 0.0
2017-Sep-09 15:30N 40°41' W 074°02'0 0.0
2017-Sep-09 15:00N 40°41' W 074°02'0 0.0
2017-Sep-09 14:30N 40°41' W 074°02'0 0.0
2017-Sep-09 14:00N 40°41' W 074°02'0 0.0
2017-Sep-09 13:30N 40°41' W 074°02'0 0.0
2017-Sep-09 13:00N 40°41' W 074°02'0 0.0
2017-Sep-09 12:30N 40°41' W 074°02'0 0.1
2017-Sep-09 12:00N 40°41' W 074°02'0 0.0
2017-Sep-09 11:30N 40°41' W 074°02'0 0.0
2017-Sep-09 11:00N 40°41' W 074°02'0 0.0
2017-Sep-09 10:30N 40°41' W 074°02'0 0.0
2017-Sep-09 10:00N 40°41' W 074°02'0 0.0
2017-Sep-09 09:30N 40°41' W 074°02'0 0.0
2017-Sep-09 09:00N 40°41' W 074°02'0 0.0
2017-Sep-09 08:30N 40°41' W 074°02'0 0.0
2017-Sep-09 08:00N 40°41' W 074°02'0 0.0
2017-Sep-09 07:30N 40°41' W 074°02'0 0.0
2017-Sep-09 07:00N 40°41' W 074°02'0 0.0
2017-Sep-09 06:30N 40°41' W 074°02'0 0.0
2017-Sep-09 06:00N 40°41' W 074°02'0 0.0
2017-Sep-09 05:30N 40°41' W 074°02'0 0.0
2017-Sep-09 05:00N 40°41' W 074°02'0 0.0
2017-Sep-09 04:30N 40°41' W 074°02'0 0.1
2017-Sep-09 04:00N 40°41' W 074°02'0 0.0
2017-Sep-09 03:30N 40°41' W 074°02'0 0.0
2017-Sep-09 03:00N 40°41' W 074°02'0 0.0
2017-Sep-09 02:28N 40°41' W 074°02'0 0.0
2017-Sep-09 02:00N 40°41' W 074°02'0 0.0
2017-Sep-09 01:31N 40°41' W 074°02'0 0.0
2017-Sep-09 01:00N 40°41' W 074°02'0 0.0
2017-Sep-09 00:30N 40°41' W 074°02'0 0.0
2017-Sep-09 00:00N 40°41' W 074°02'0 0.0
2017-Sep-08 23:30N 40°41' W 074°02'0 0.0
2017-Sep-08 23:01N 40°41' W 074°02'0 0.0
2017-Sep-08 22:30N 40°41' W 074°02'0 0.0
2017-Sep-08 22:00N 40°41' W 074°02'0 0.0
2017-Sep-08 21:30N 40°41' W 074°02'0 0.0
2017-Sep-08 21:01N 40°41' W 074°02'0 0.0
2017-Sep-08 20:28N 40°41' W 074°02'0 0.0
2017-Sep-08 20:01N 40°41' W 074°02'0 0.0
2017-Sep-08 19:28N 40°41' W 074°02'0 0.0
2017-Sep-08 18:58N 40°41' W 074°02'0 0.0
2017-Sep-08 18:31N 40°41' W 074°02'0 0.0
2017-Sep-08 17:58N 40°41' W 074°02'0 0.0
2017-Sep-08 17:28N 40°41' W 074°02'0 0.0
2017-Sep-08 16:58N 40°41' W 074°02'0 0.0
2017-Sep-08 16:28N 40°41' W 074°02'0 0.1
2017-Sep-08 15:58N 40°41' W 074°02'2 3.4
2017-Sep-08 15:30N 40°40' W 074°03'5 9.1
2017-Sep-08 14:58N 40°35' W 074°02'  
2017-Sep-04 04:56N 40°29' W 074°02'89 5.7
2017-Sep-03 13:19N 41°06' W 072°16'  

Dump ship's entire track history